Time;durP1;ratioP1;P1;durP2;ratioP2;P2;SDS_P1;SDS_P2;PMS_P1;PMS_P2;Temp;Humidity;BMP_temperature;BMP_pressure;BME280_temperature;BME280_humidity;BME280_pressure;Samples;Min_cycle;Max_cycle;Signal;HPM_P1;HPM_P2
2023/05/09 00:00:47;;;;;;;;;;;;;;;9.93;54.28;102132.25;5009789;28;20408;-76
2023/05/09 00:03:13;;;;;;;;;;;;;;;9.93;54.72;102142.94;5022913;28;19974;-76
2023/05/09 00:05:38;;;;;;;;;;;;;;;9.81;55.75;102142.09;5026059;28;20341;-77
2023/05/09 00:08:04;;;;;;;;;;;;;;;9.82;55.00;102151.75;5026830;28;19942;-77
2023/05/09 00:10:30;;;;;;;;;;;;;;;9.72;55.35;102140.81;4997722;28;19958;-76
2023/05/09 00:12:57;;;;;;;;;;;;;;;9.69;55.99;102143.97;5010395;28;19941;-76
2023/05/09 00:15:24;;;;;;;;;;;;;;;9.74;56.39;102139.53;5025430;28;19944;-76
2023/05/09 00:17:50;;;;;;;;;;;;;;;9.69;55.66;102141.28;5029280;28;19932;-76
2023/05/09 00:20:15;;;;;;;;;;;;;;;9.56;55.92;102132.41;5001778;28;19945;-76
2023/05/09 00:22:41;;;;;;;;;;;;;;;9.62;55.35;102127.19;5007371;28;19975;-76
2023/05/09 00:25:07;;;;;;;;;;;;;;;9.74;55.02;102138.72;5026061;28;20797;-76
2023/05/09 00:27:33;;;;;;;;;;;;;;;9.81;54.57;102126.06;5006481;28;19976;-76
2023/05/09 00:29:59;;;;;;;;;;;;;;;9.82;54.24;102125.00;5027922;28;19948;-75
2023/05/09 00:32:25;;;;;;;;;;;;;;;9.76;54.70;102123.28;5015019;28;19983;-76
2023/05/09 00:34:50;;;;;;;;;;;;;;;9.79;54.19;102125.47;5030040;28;19971;-76
2023/05/09 00:37:18;;;;;;;;;;;;;;;9.74;54.74;102120.00;5030184;28;20440;-77
2023/05/09 00:39:44;;;;;;;;;;;;;;;9.63;54.95;102116.28;4997942;28;19961;-76
2023/05/09 00:42:10;;;;;;;;;;;;;;;9.56;55.40;102115.56;5014941;28;19945;-77
2023/05/09 00:44:36;;;;;;;;;;;;;;;9.57;55.15;102107.28;5030162;28;19955;-76
2023/05/09 00:47:01;;;;;;;;;;;;;;;9.59;54.94;102096.38;5027326;28;20024;-76
2023/05/09 00:49:27;;;;;;;;;;;;;;;9.52;55.29;102099.13;5030416;28;19956;-77
2023/05/09 00:51:53;;;;;;;;;;;;;;;9.46;55.23;102089.34;5011989;28;19940;-77
2023/05/09 00:54:19;;;;;;;;;;;;;;;9.58;55.19;102098.22;5027352;28;19986;-76
2023/05/09 00:56:44;;;;;;;;;;;;;;;9.58;55.11;102090.19;5010157;28;19974;-74
2023/05/09 00:59:10;;;;;;;;;;;;;;;9.51;55.35;102097.50;5012785;28;20426;-76
2023/05/09 01:01:36;;;;;;;;;;;;;;;9.48;55.70;102091.78;4993583;28;19986;-76
2023/05/09 01:04:01;;;;;;;;;;;;;;;9.45;55.45;102082.38;5011243;28;20445;-76
2023/05/09 01:06:46;;;;;;;;;;;;;;;9.42;55.48;102077.50;5028097;28;19932;-77
2023/05/09 01:09:30;;;;;;;;;;;;;;;9.39;55.92;102079.81;5008996;28;20002;-76
2023/05/09 01:12:02;;;;;;;;;;;;;;;9.32;56.08;102071.88;5028271;28;19936;-77
2023/05/09 01:14:54;;;;;;;;;;;;;;;9.35;55.83;102066.09;5026691;28;20397;-78
2023/05/09 01:17:23;;;;;;;;;;;;;;;9.31;56.11;102070.25;5024902;28;20355;-75
2023/05/09 01:19:57;;;;;;;;;;;;;;;9.33;56.15;102056.66;5028493;28;20045;-77
2023/05/09 01:22:31;;;;;;;;;;;;;;;9.31;56.21;102059.56;5010690;28;20070;-76
2023/05/09 01:25:15;;;;;;;;;;;;;;;9.25;56.51;102057.81;5023726;28;20425;-75
2023/05/09 01:27:59;;;;;;;;;;;;;;;9.20;56.85;102047.78;5030824;28;19940;-75
2023/05/09 01:30:25;;;;;;;;;;;;;;;9.28;56.13;102052.03;5014479;28;20033;-76
2023/05/09 01:32:52;;;;;;;;;;;;;;;9.35;56.25;102049.22;5024803;28;19938;-76
2023/05/09 01:35:22;;;;;;;;;;;;;;;9.24;56.52;102042.81;5030914;28;19937;-75
2023/05/09 01:37:49;;;;;;;;;;;;;;;9.21;56.80;102048.59;5036385;28;19933;-75
2023/05/09 01:40:16;;;;;;;;;;;;;;;9.15;57.09;102038.84;5001500;28;20451;-76
2023/05/09 01:42:55;;;;;;;;;;;;;;;9.20;56.52;102036.28;5029748;28;19927;-75
2023/05/09 01:45:22;;;;;;;;;;;;;;;9.10;57.62;102036.03;5027621;28;19958;-74
2023/05/09 01:47:48;;;;;;;;;;;;;;;9.06;57.23;102038.34;5032243;28;19936;-76
2023/05/09 01:50:16;;;;;;;;;;;;;;;9.01;57.85;102030.22;5026050;28;19985;-77
2023/05/09 01:52:42;;;;;;;;;;;;;;;9.02;57.46;102029.97;5028589;28;20420;-75
2023/05/09 01:55:09;;;;;;;;;;;;;;;9.03;57.48;102025.44;5026514;28;19939;-76
2023/05/09 01:57:36;;;;;;;;;;;;;;;9.13;57.00;102031.03;5025642;28;19944;-76
2023/05/09 02:00:02;;;;;;;;;;;;;;;9.13;57.12;102030.22;5013683;28;20001;-77
2023/05/09 02:02:39;;;;;;;;;;;;;;;9.00;57.62;102031.22;5026364;28;19967;-76
2023/05/09 02:05:06;;;;;;;;;;;;;;;8.83;58.65;102032.91;5014934;28;20080;-76
2023/05/09 02:07:32;;;;;;;;;;;;;;;8.81;58.25;102027.81;5012760;28;20319;-76
2023/05/09 02:09:59;;;;;;;;;;;;;;;8.81;58.42;102033.16;5011484;28;20078;-76
2023/05/09 02:12:25;;;;;;;;;;;;;;;8.73;58.68;102030.78;4999237;28;19943;-76
2023/05/09 02:14:50;;;;;;;;;;;;;;;8.81;58.15;102030.47;5033797;28;19937;-76
2023/05/09 02:17:16;;;;;;;;;;;;;;;8.77;58.27;102020.47;4995516;28;19942;-75
2023/05/09 02:19:42;;;;;;;;;;;;;;;8.77;58.38;102025.81;5011773;28;19956;-78
2023/05/09 02:22:08;;;;;;;;;;;;;;;8.75;58.45;102023.38;5011734;28;19935;-76
2023/05/09 02:24:34;;;;;;;;;;;;;;;8.67;58.98;102021.84;5025346;28;19960;-76
2023/05/09 02:27:02;;;;;;;;;;;;;;;8.66;58.89;102020.19;5014157;28;19938;-77
2023/05/09 02:29:30;;;;;;;;;;;;;;;8.73;58.43;102028.91;5008234;28;19939;-78
2023/05/09 02:31:59;;;;;;;;;;;;;;;8.71;58.97;102022.19;5017465;28;20714;-78
2023/05/09 02:34:25;;;;;;;;;;;;;;;8.60;59.88;102023.78;5009842;28;20749;-76
2023/05/09 02:36:51;;;;;;;;;;;;;;;8.59;59.31;102018.63;5028410;28;19971;-77
2023/05/09 02:39:16;;;;;;;;;;;;;;;8.52;59.54;102024.06;5026072;28;20396;-75
2023/05/09 02:41:46;;;;;;;;;;;;;;;8.56;59.23;102019.09;5014941;28;19936;-76
2023/05/09 02:44:12;;;;;;;;;;;;;;;8.51;59.69;102018.94;5026511;28;19951;-77
2023/05/09 02:46:37;;;;;;;;;;;;;;;8.42;60.20;102013.91;5014865;28;20394;-77
2023/05/09 02:49:03;;;;;;;;;;;;;;;8.41;60.44;102011.47;5024959;28;19947;-77
2023/05/09 02:51:28;;;;;;;;;;;;;;;8.45;60.46;102010.78;5011055;28;19932;-76
2023/05/09 02:53:54;;;;;;;;;;;;;;;8.42;60.53;102008.56;5013650;28;19926;-79
2023/05/09 02:56:21;;;;;;;;;;;;;;;8.28;61.15;102001.75;5009761;28;20018;-77
2023/05/09 02:58:50;;;;;;;;;;;;;;;8.25;61.53;102012.84;5012852;28;20428;-77
2023/05/09 03:01:17;;;;;;;;;;;;;;;8.21;61.31;102006.34;5028788;28;20029;-77
2023/05/09 03:03:42;;;;;;;;;;;;;;;8.24;61.41;102000.53;5014657;28;19950;-78
2023/05/09 03:06:08;;;;;;;;;;;;;;;8.32;61.05;101986.88;5018369;28;19927;-76
2023/05/09 03:08:34;;;;;;;;;;;;;;;8.37;60.56;101983.59;5018514;28;19929;-75
2023/05/09 03:11:00;;;;;;;;;;;;;;;8.36;60.79;101979.28;5002712;28;20422;-76
2023/05/09 03:13:26;;;;;;;;;;;;;;;8.21;61.17;101995.66;5027634;28;20044;-79
2023/05/09 03:15:51;;;;;;;;;;;;;;;8.16;61.58;101987.50;5016436;28;20034;-77
2023/05/09 03:18:17;;;;;;;;;;;;;;;8.14;61.59;101993.06;5008723;28;19949;-76
2023/05/09 03:20:43;;;;;;;;;;;;;;;8.14;61.75;101987.75;5009488;28;19959;-76
2023/05/09 03:23:09;;;;;;;;;;;;;;;8.13;61.33;101978.09;5012790;28;19932;-76
2023/05/09 03:25:34;;;;;;;;;;;;;;;8.09;62.01;101976.09;5029325;28;20387;-79
2023/05/09 03:28:00;;;;;;;;;;;;;;;8.07;62.39;101980.84;5002464;28;19976;-76
2023/05/09 03:30:26;;;;;;;;;;;;;;;8.03;62.57;101976.97;5029877;28;19957;-78
2023/05/09 03:32:53;;;;;;;;;;;;;;;8.09;62.62;101976.09;5014046;28;19934;-77
2023/05/09 03:35:18;;;;;;;;;;;;;;;8.05;62.17;101969.56;5014020;28;19942;-77
2023/05/09 03:37:44;;;;;;;;;;;;;;;7.97;62.58;101973.34;5014174;28;19941;-78
2023/05/09 03:40:10;;;;;;;;;;;;;;;7.84;63.39;101979.63;5040419;28;20444;-77
2023/05/09 03:42:44;;;;;;;;;;;;;;;7.86;63.60;101968.75;5015621;28;19932;-77
2023/05/09 03:45:10;;;;;;;;;;;;;;;7.90;63.43;101972.59;5017359;28;20019;-78
2023/05/09 03:47:35;;;;;;;;;;;;;;;8.00;62.43;101967.59;5046769;28;19947;-77
2023/05/09 03:50:03;;;;;;;;;;;;;;;7.91;63.19;101975.03;5045615;28;19951;-77
2023/05/09 03:52:29;;;;;;;;;;;;;;;7.77;64.19;101972.75;5010551;28;19979;-77
2023/05/09 03:54:54;;;;;;;;;;;;;;;7.78;64.25;101972.50;4995952;28;20028;-77
2023/05/09 03:57:20;;;;;;;;;;;;;;;7.88;64.02;101964.81;5010146;28;19942;-77
2023/05/09 03:59:48;;;;;;;;;;;;;;;7.97;63.36;101956.53;5035697;28;19978;-75
2023/05/09 04:02:14;;;;;;;;;;;;;;;7.89;63.97;101953.13;5014821;28;20497;-75
2023/05/09 04:04:40;;;;;;;;;;;;;;;7.93;64.34;101958.84;5006509;28;19967;-75
2023/05/09 04:07:06;;;;;;;;;;;;;;;7.89;64.78;101961.13;5016355;28;19943;-77
2023/05/09 04:09:32;;;;;;;;;;;;;;;7.83;64.43;101966.53;5011824;28;19950;-76
2023/05/09 04:11:57;;;;;;;;;;;;;;;7.94;64.51;101963.94;5032314;28;19976;-77
2023/05/09 04:14:23;;;;;;;;;;;;;;;7.84;64.57;101968.97;5022165;28;19932;-77
2023/05/09 04:16:49;;;;;;;;;;;;;;;7.83;64.88;101966.53;5034999;28;19936;-78
2023/05/09 04:19:15;;;;;;;;;;;;;;;7.77;65.35;101965.56;5047260;28;20130;-77
2023/05/09 04:21:41;;;;;;;;;;;;;;;7.76;65.51;101955.94;5038134;28;19944;-77
2023/05/09 04:24:07;;;;;;;;;;;;;;;7.77;65.10;101952.22;5000337;28;19955;-78
2023/05/09 04:26:40;;;;;;;;;;;;;;;7.81;65.49;101953.41;5002471;28;20015;-78
2023/05/09 04:29:10;;;;;;;;;;;;;;;7.76;65.59;101960.44;5017262;28;20047;-78
2023/05/09 04:31:35;;;;;;;;;;;;;;;7.85;65.34;101949.25;5011241;28;19955;-77
2023/05/09 04:34:02;;;;;;;;;;;;;;;7.82;65.55;101948.91;5029110;28;19949;-78
2023/05/09 04:36:32;;;;;;;;;;;;;;;7.77;65.97;101940.75;5031543;28;19982;-77
2023/05/09 04:38:58;;;;;;;;;;;;;;;7.88;65.10;101940.00;5030350;28;19955;-76
2023/05/09 04:41:26;;;;;;;;;;;;;;;7.94;64.72;101942.59;4979001;28;21052;-75
2023/05/09 04:43:52;;;;;;;;;;;;;;;7.93;65.33;101934.84;5010322;28;20017;-77
2023/05/09 04:46:18;;;;;;;;;;;;;;;7.97;65.11;101940.53;4994826;28;20580;-77
2023/05/09 04:48:44;;;;;;;;;;;;;;;8.09;64.81;101934.22;5030653;28;19938;-77
2023/05/09 04:51:10;;;;;;;;;;;;;;;8.15;64.21;101932.50;5030325;28;19938;-79
2023/05/09 04:53:35;;;;;;;;;;;;;;;8.25;63.72;101937.31;5030422;28;19961;-76
2023/05/09 04:56:02;;;;;;;;;;;;;;;8.25;64.29;101938.13;5014756;28;20022;-77
2023/05/09 04:58:28;;;;;;;;;;;;;;;8.21;64.95;101948.44;4993733;28;19944;-77
2023/05/09 05:00:55;;;;;;;;;;;;;;;8.36;63.67;101939.25;5012905;28;19935;-77
2023/05/09 05:03:20;;;;;;;;;;;;;;;8.37;64.67;101941.69;4998266;28;19988;-74
2023/05/09 05:05:46;;;;;;;;;;;;;;;8.47;63.67;101933.97;5009000;28;20035;-77
2023/05/09 05:08:12;;;;;;;;;;;;;;;8.57;63.58;101916.59;5025195;28;19934;-76
2023/05/09 05:10:40;;;;;;;;;;;;;;;8.74;63.01;101929.06;5009704;28;20039;-78
2023/05/09 05:13:08;;;;;;;;;;;;;;;8.73;63.28;101918.59;5010891;28;19943;-77
2023/05/09 05:15:37;;;;;;;;;;;;;;;8.81;63.03;101898.78;5028387;28;19939;-76
2023/05/09 05:18:04;;;;;;;;;;;;;;;8.88;62.66;101902.97;5020767;28;19935;-79
2023/05/09 05:20:33;;;;;;;;;;;;;;;8.80;62.99;101913.97;5014944;28;19996;-75
2023/05/09 05:22:59;;;;;;;;;;;;;;;8.86;63.60;101910.38;5030446;28;19934;-77
2023/05/09 05:25:25;;;;;;;;;;;;;;;8.95;62.60;101901.00;5028456;28;19958;-77
2023/05/09 05:27:51;;;;;;;;;;;;;;;8.97;63.19;101901.59;5015053;28;19934;-77
2023/05/09 05:30:17;;;;;;;;;;;;;;;9.13;62.71;101901.94;5012667;28;19949;-75
2023/05/09 05:32:43;;;;;;;;;;;;;;;9.20;61.87;101900.78;4999847;28;20042;-77
2023/05/09 05:35:10;;;;;;;;;;;;;;;9.24;62.51;101899.28;5018522;28;20426;-76
2023/05/09 05:37:37;;;;;;;;;;;;;;;9.37;62.46;101902.78;5014316;28;19940;-77
2023/05/09 05:40:06;;;;;;;;;;;;;;;9.45;62.10;101902.41;5001776;28;19955;-77
2023/05/09 05:42:33;;;;;;;;;;;;;;;9.41;62.04;101894.03;5027898;28;19933;-77
2023/05/09 05:45:05;;;;;;;;;;;;;;;9.62;61.90;101892.66;5014480;28;19963;-76
2023/05/09 05:47:33;;;;;;;;;;;;;;;9.73;61.59;101882.94;5015430;28;19938;-78
2023/05/09 05:49:59;;;;;;;;;;;;;;;9.63;61.96;101882.75;5030900;28;19958;-76
2023/05/09 05:52:25;;;;;;;;;;;;;;;9.72;61.70;101884.00;5024094;28;20028;-76
2023/05/09 05:54:52;;;;;;;;;;;;;;;9.87;61.40;101878.97;5008731;28;20358;-76
2023/05/09 05:57:18;;;;;;;;;;;;;;;9.95;62.80;101883.94;5005112;28;19992;-76
2023/05/09 05:59:47;;;;;;;;;;;;;;;10.04;61.07;101881.72;5011506;28;20981;-76
2023/05/09 06:02:17;;;;;;;;;;;;;;;10.27;60.54;101878.97;5012741;28;20330;-77
2023/05/09 06:04:43;;;;;;;;;;;;;;;10.31;59.97;101876.63;5013952;28;20047;-75
2023/05/09 06:07:09;;;;;;;;;;;;;;;10.46;60.28;101878.78;5030177;28;20056;-76
2023/05/09 06:09:35;;;;;;;;;;;;;;;10.51;59.78;101877.00;5014167;28;19998;-78
2023/05/09 06:12:00;;;;;;;;;;;;;;;10.76;60.31;101873.13;5017342;28;19938;-77
2023/05/09 06:14:26;;;;;;;;;;;;;;;10.88;59.39;101871.97;5012550;28;19978;-76
2023/05/09 06:16:52;;;;;;;;;;;;;;;10.81;58.96;101879.38;5013514;28;19943;-77
2023/05/09 06:19:18;;;;;;;;;;;;;;;10.99;58.73;101878.34;5031275;28;19957;-77
2023/05/09 06:21:43;;;;;;;;;;;;;;;11.09;59.35;101873.09;5012448;28;19940;-76
2023/05/09 06:24:09;;;;;;;;;;;;;;;11.28;59.14;101870.97;5033134;28;19963;-77
2023/05/09 06:26:35;;;;;;;;;;;;;;;11.25;58.23;101862.63;5029796;28;19965;-76
2023/05/09 06:29:00;;;;;;;;;;;;;;;11.47;58.45;101868.84;5002833;28;19951;-77
2023/05/09 06:31:26;;;;;;;;;;;;;;;11.51;57.75;101858.41;5031529;28;19960;-76
2023/05/09 06:33:52;;;;;;;;;;;;;;;11.60;57.21;101856.94;5029709;28;19977;-78
2023/05/09 06:36:17;;;;;;;;;;;;;;;11.57;56.94;101842.13;5013824;28;19942;-75
2023/05/09 06:38:43;;;;;;;;;;;;;;;11.83;56.17;101835.22;5014294;28;19940;-76
2023/05/09 06:41:08;;;;;;;;;;;;;;;11.84;56.49;101846.78;5031386;28;19936;-77
2023/05/09 06:43:34;;;;;;;;;;;;;;;12.05;56.20;101832.50;4996361;28;19958;-77
2023/05/09 06:46:00;;;;;;;;;;;;;;;12.33;55.85;101836.00;5011852;28;19995;-77
2023/05/09 06:48:25;;;;;;;;;;;;;;;12.33;54.88;101828.78;5030133;28;20443;-76
2023/05/09 06:50:51;;;;;;;;;;;;;;;12.32;54.69;101827.13;5029854;28;19952;-77
2023/05/09 06:53:16;;;;;;;;;;;;;;;12.34;54.16;101821.53;4997314;28;19942;-75
2023/05/09 06:55:42;;;;;;;;;;;;;;;12.56;54.19;101812.31;4994229;28;19984;-78
2023/05/09 06:58:08;;;;;;;;;;;;;;;12.57;53.94;101815.81;5018435;28;19935;-78
2023/05/09 07:00:35;;;;;;;;;;;;;;;12.57;53.65;101807.75;5030653;28;20040;-76
2023/05/09 07:03:00;;;;;;;;;;;;;;;12.94;53.40;101806.91;5029437;28;19933;-76
2023/05/09 07:05:26;;;;;;;;;;;;;;;12.97;53.57;101803.72;5031624;28;20460;-77
2023/05/09 07:07:53;;;;;;;;;;;;;;;13.18;53.92;101807.34;5028888;28;19938;-76
2023/05/09 07:10:20;;;;;;;;;;;;;;;13.35;54.62;101808.00;5030577;28;20324;-75
2023/05/09 07:12:46;;;;;;;;;;;;;;;13.19;52.93;101787.44;5016372;28;19943;-76
2023/05/09 07:15:12;;;;;;;;;;;;;;;13.37;53.24;101801.28;5012563;28;19949;-76
2023/05/09 07:17:38;;;;;;;;;;;;;;;13.70;52.47;101791.19;4999977;28;19946;-78
2023/05/09 07:20:04;;;;;;;;;;;;;;;13.59;52.32;101793.03;4997593;28;19950;-77
2023/05/09 07:22:30;;;;;;;;;;;;;;;13.61;52.66;101790.88;4997649;28;19938;-77
2023/05/09 07:24:55;;;;;;;;;;;;;;;13.88;51.90;101795.25;5019971;28;20000;-76
2023/05/09 07:27:21;;;;;;;;;;;;;;;13.98;51.01;101789.09;4998765;28;19948;-75
2023/05/09 07:29:48;;;;;;;;;;;;;;;14.10;52.57;101786.97;5013530;28;20437;-76
2023/05/09 07:32:13;;;;;;;;;;;;;;;14.20;51.78;101786.97;5014198;28;19944;-77
2023/05/09 07:34:39;;;;;;;;;;;;;;;14.30;51.54;101796.97;5015349;28;19941;-76
2023/05/09 07:37:04;;;;;;;;;;;;;;;14.34;51.23;101781.84;5015760;28;19944;-78
2023/05/09 07:39:30;;;;;;;;;;;;;;;14.34;50.80;101777.28;5014446;28;19965;-76
2023/05/09 07:41:56;;;;;;;;;;;;;;;14.32;51.14;101774.03;5013720;28;19943;-75
2023/05/09 07:44:22;;;;;;;;;;;;;;;14.73;50.48;101774.84;5029640;28;20960;-76
2023/05/09 07:46:47;;;;;;;;;;;;;;;15.03;49.78;101757.78;5013177;28;19937;-75
2023/05/09 07:49:13;;;;;;;;;;;;;;;15.32;50.26;101759.06;4999141;28;19956;-76
2023/05/09 07:51:40;;;;;;;;;;;;;;;15.27;49.15;101740.97;5009994;28;20403;-75
2023/05/09 07:54:05;;;;;;;;;;;;;;;15.48;48.42;101736.28;5011765;28;19944;-77
2023/05/09 07:56:31;;;;;;;;;;;;;;;15.12;49.63;101741.84;5030351;28;19991;-76
2023/05/09 07:58:57;;;;;;;;;;;;;;;15.12;48.65;101728.38;5030879;28;20431;-75
2023/05/09 08:01:22;;;;;;;;;;;;;;;15.27;49.36;101720.19;5029500;28;19945;-79
2023/05/09 08:03:48;;;;;;;;;;;;;;;15.46;48.36;101727.66;5014184;28;19964;-76
2023/05/09 08:06:13;;;;;;;;;;;;;;;15.72;48.53;101723.78;5026756;28;19967;-75
2023/05/09 08:08:39;;;;;;;;;;;;;;;15.60;47.37;101730.56;5011126;28;19938;-76
2023/05/09 08:11:05;;;;;;;;;;;;;;;15.75;46.93;101728.59;5010774;28;19934;-78
2023/05/09 08:13:30;;;;;;;;;;;;;;;15.91;46.71;101732.00;5013086;28;20453;-77
2023/05/09 08:15:56;;;;;;;;;;;;;;;15.91;46.59;101714.97;4990850;28;19974;-76
2023/05/09 08:18:21;;;;;;;;;;;;;;;16.06;46.71;101713.00;5013164;28;19946;-75
2023/05/09 08:20:47;;;;;;;;;;;;;;;15.90;46.88;101716.88;5015263;28;19949;-75
2023/05/09 08:23:12;;;;;;;;;;;;;;;15.80;46.60;101711.56;5034300;28;20011;-75
2023/05/09 08:25:38;;;;;;;;;;;;;;;16.11;47.81;101696.72;5004156;28;19955;-75
2023/05/09 08:28:06;;;;;;;;;;;;;;;16.42;46.90;101684.81;5016431;28;19939;-76
2023/05/09 08:30:32;;;;;;;;;;;;;;;16.53;45.21;101692.56;5034335;28;19958;-75
2023/05/09 08:32:57;;;;;;;;;;;;;;;16.55;45.38;101678.75;5002770;28;19938;-75
2023/05/09 08:35:23;;;;;;;;;;;;;;;16.43;45.63;101681.81;5015341;28;20627;-75
2023/05/09 08:37:49;;;;;;;;;;;;;;;16.38;45.94;101679.16;5018119;28;19929;-75
2023/05/09 08:40:14;;;;;;;;;;;;;;;16.36;45.70;101681.34;5032028;28;20475;-76
2023/05/09 08:42:44;;;;;;;;;;;;;;;16.80;46.75;101674.97;5016016;28;20430;-75
2023/05/09 08:45:10;;;;;;;;;;;;;;;17.09;44.70;101678.41;5034046;28;19958;-75
2023/05/09 08:47:37;;;;;;;;;;;;;;;17.30;44.04;101683.53;5028596;28;19937;-75
2023/05/09 08:50:03;;;;;;;;;;;;;;;16.86;44.18;101684.63;5011591;28;19949;-77
2023/05/09 08:52:30;;;;;;;;;;;;;;;17.08;44.45;101676.78;5031846;28;19952;-76
2023/05/09 08:54:56;;;;;;;;;;;;;;;17.48;44.43;101680.03;5033357;28;19965;-76
2023/05/09 08:57:22;;;;;;;;;;;;;;;17.39;43.45;101666.34;5020192;28;19942;-74
2023/05/09 08:59:48;;;;;;;;;;;;;;;17.54;44.28;101675.34;5016872;28;19950;-75
2023/05/09 09:02:14;;;;;;;;;;;;;;;17.94;43.93;101674.72;5014966;28;20496;-74
2023/05/09 09:04:39;;;;;;;;;;;;;;;18.26;44.05;101657.66;5016084;28;19956;-75
2023/05/09 09:07:06;;;;;;;;;;;;;;;18.11;41.10;101651.69;5033415;28;19945;-74
2023/05/09 09:09:34;;;;;;;;;;;;;;;18.23;42.58;101654.75;5020299;28;19953;-75
2023/05/09 09:12:02;;;;;;;;;;;;;;;18.19;43.20;101654.53;5031736;28;19937;-75
2023/05/09 09:14:30;;;;;;;;;;;;;;;18.37;42.03;101646.63;5032491;28;19970;-77
2023/05/09 09:16:56;;;;;;;;;;;;;;;18.39;41.54;101649.84;5011016;28;19942;-75
2023/05/09 09:19:25;;;;;;;;;;;;;;;18.51;42.62;101637.38;5015438;28;20053;-77
2023/05/09 09:21:53;;;;;;;;;;;;;;;19.02;42.54;101646.41;5011659;28;19944;-76
2023/05/09 09:24:21;;;;;;;;;;;;;;;18.89;42.08;101650.75;5015155;28;19949;-76
2023/05/09 09:26:47;;;;;;;;;;;;;;;18.68;41.51;101650.38;5012092;28;20520;-74
2023/05/09 09:29:13;;;;;;;;;;;;;;;18.61;42.29;101639.09;5033278;28;19964;-75
2023/05/09 09:31:42;;;;;;;;;;;;;;;18.99;41.77;101636.97;5032879;28;20025;-75
2023/05/09 09:34:08;;;;;;;;;;;;;;;19.11;40.68;101631.03;4998624;28;19945;-76
2023/05/09 09:36:35;;;;;;;;;;;;;;;19.12;39.88;101626.41;5013466;28;19937;-76
2023/05/09 09:39:05;;;;;;;;;;;;;;;18.87;40.50;101625.03;5001318;28;19997;-75
2023/05/09 09:41:37;;;;;;;;;;;;;;;18.97;39.49;101612.06;5012747;28;20535;-76
2023/05/09 09:44:07;;;;;;;;;;;;;;;19.31;39.45;101611.56;5015651;28;19957;-76
2023/05/09 09:46:42;;;;;;;;;;;;;;;19.15;39.49;101613.00;5028900;28;19934;-77
2023/05/09 09:49:08;;;;;;;;;;;;;;;18.90;38.66;101600.81;5016213;28;19966;-75
2023/05/09 09:51:33;;;;;;;;;;;;;;;19.21;38.96;101606.34;5026208;28;19939;-76
2023/05/09 09:54:00;;;;;;;;;;;;;;;19.33;40.42;101593.03;5028470;28;19987;-75
2023/05/09 09:56:39;;;;;;;;;;;;;;;19.29;38.76;101594.75;5027368;28;19945;-75
2023/05/09 09:59:10;;;;;;;;;;;;;;;19.55;38.23;101592.22;5029962;28;20545;-75
2023/05/09 10:01:51;;;;;;;;;;;;;;;19.35;38.23;101590.00;5027560;28;19946;-78
2023/05/09 10:04:17;;;;;;;;;;;;;;;19.40;37.44;101597.25;5011734;28;19960;-76
2023/05/09 10:06:53;;;;;;;;;;;;;;;19.86;38.18;101591.50;4998233;28;19935;-77
2023/05/09 10:09:20;;;;;;;;;;;;;;;19.75;37.68;101582.78;5014857;28;19974;-75
2023/05/09 10:11:47;;;;;;;;;;;;;;;19.67;36.74;101591.69;5011884;28;19944;-75
2023/05/09 10:14:14;;;;;;;;;;;;;;;19.93;37.07;101580.19;5024299;28;19951;-75
2023/05/09 10:16:41;;;;;;;;;;;;;;;20.19;36.89;101583.81;4996307;28;19936;-76
2023/05/09 10:19:07;;;;;;;;;;;;;;;20.67;38.69;101572.16;5026078;28;19993;-75
2023/05/09 10:21:33;;;;;;;;;;;;;;;20.44;36.20;101566.81;5026960;28;19985;-76
2023/05/09 10:23:59;;;;;;;;;;;;;;;20.77;36.81;101563.66;5019185;28;19962;-76
2023/05/09 10:26:27;;;;;;;;;;;;;;;20.39;34.54;101555.25;5010358;28;19978;-76
2023/05/09 10:28:56;;;;;;;;;;;;;;;20.35;36.22;101541.47;5030609;28;20053;-76
2023/05/09 10:31:26;;;;;;;;;;;;;;;20.40;36.47;101554.94;5011810;28;19941;-76
2023/05/09 10:33:52;;;;;;;;;;;;;;;20.91;35.38;101542.53;4996153;28;19933;-75
2023/05/09 10:36:28;;;;;;;;;;;;;;;20.63;34.93;101546.69;5025341;28;19940;-75
2023/05/09 10:38:54;;;;;;;;;;;;;;;21.08;34.80;101540.94;5024800;28;20349;-79
2023/05/09 10:41:20;;;;;;;;;;;;;;;21.04;35.46;101537.25;5032073;28;19942;-76
2023/05/09 10:43:46;;;;;;;;;;;;;;;21.11;37.46;101540.28;5026981;28;19945;-76
2023/05/09 10:46:12;;;;;;;;;;;;;;;21.16;35.63;101529.25;5025859;28;19952;-75
2023/05/09 10:48:39;;;;;;;;;;;;;;;20.98;34.01;101520.28;5009035;28;20426;-75
2023/05/09 10:51:04;;;;;;;;;;;;;;;21.08;33.43;101513.72;5010273;28;19937;-75
2023/05/09 10:53:42;;;;;;;;;;;;;;;20.97;34.00;101524.13;5012030;28;19940;-77
2023/05/09 10:56:08;;;;;;;;;;;;;;;21.05;33.68;101514.34;5011783;28;20034;-77
2023/05/09 10:58:36;;;;;;;;;;;;;;;21.02;34.58;101509.56;5026943;28;20022;-77
2023/05/09 11:01:05;;;;;;;;;;;;;;;21.03;34.14;101494.81;4992490;28;20304;-78
2023/05/09 11:03:50;;;;;;;;;;;;;;;21.35;38.39;101491.59;5028061;28;19937;-76
2023/05/09 11:06:39;;;;;;;;;;;;;;;21.12;34.10;101492.88;5008789;28;19962;-74
2023/05/09 11:09:31;;;;;;;;;;;;;;;21.16;34.45;101477.50;5011243;28;19956;-77
2023/05/09 11:12:00;;;;;;;;;;;;;;;21.15;34.10;101468.53;5029124;28;19938;-75
2023/05/09 11:14:39;;;;;;;;;;;;;;;20.87;33.86;101470.81;5012359;28;20217;-77
2023/05/09 11:17:05;;;;;;;;;;;;;;;21.33;34.04;101472.03;5010569;28;20002;-75
2023/05/09 11:19:58;;;;;;;;;;;;;;;21.10;32.38;101465.97;5025427;28;19983;-75
2023/05/09 11:22:27;;;;;;;;;;;;;;;21.06;32.06;101464.19;5023228;28;20686;-77
2023/05/09 11:25:03;;;;;;;;;;;;;;;21.45;32.69;101468.63;5025693;28;20019;-75
2023/05/09 11:27:38;;;;;;;;;;;;;;;21.51;33.26;101446.34;5010544;28;19948;-77
2023/05/09 11:30:05;;;;;;;;;;;;;;;21.20;31.88;101440.31;5006587;28;19998;-76
2023/05/09 11:32:31;;;;;;;;;;;;;;;20.97;33.23;101443.25;5027937;28;20405;-76
2023/05/09 11:35:08;;;;;;;;;;;;;;;21.43;35.39;101435.47;5010427;28;20911;-78
2023/05/09 11:37:38;;;;;;;;;;;;;;;21.52;33.94;101439.75;5025327;28;19943;-75
2023/05/09 11:40:04;;;;;;;;;;;;;;;21.29;33.19;101416.59;5027736;28;19958;-76
2023/05/09 11:42:30;;;;;;;;;;;;;;;21.13;33.84;101415.47;5027852;28;19937;-76
2023/05/09 11:44:56;;;;;;;;;;;;;;;21.28;33.53;101404.13;5026350;28;19975;-76
2023/05/09 11:47:22;;;;;;;;;;;;;;;20.96;33.86;101417.13;5010552;28;19938;-76
2023/05/09 11:49:48;;;;;;;;;;;;;;;21.03;34.75;101410.41;5006460;28;19959;-76
2023/05/09 11:52:14;;;;;;;;;;;;;;;21.50;34.23;101401.13;5028903;28;19938;-78
2023/05/09 11:54:40;;;;;;;;;;;;;;;21.71;36.09;101401.19;4996516;28;19994;-77
2023/05/09 11:57:06;;;;;;;;;;;;;;;21.57;33.91;101408.00;5027402;28;20043;-75
2023/05/09 11:59:35;;;;;;;;;;;;;;;21.55;32.88;101402.09;5027638;28;20319;-75
2023/05/09 12:02:02;;;;;;;;;;;;;;;21.34;32.81;101397.38;5026460;28;20269;-76
2023/05/09 12:04:29;;;;;;;;;;;;;;;21.05;33.80;101399.97;5028739;28;20381;-75
2023/05/09 12:06:56;;;;;;;;;;;;;;;21.04;34.07;101393.72;5027492;28;19944;-78
2023/05/09 12:09:23;;;;;;;;;;;;;;;21.26;33.37;101389.97;5027582;28;20039;-73
2023/05/09 12:11:49;;;;;;;;;;;;;;;21.21;32.47;101387.44;5028013;28;19947;-76
2023/05/09 12:14:25;;;;;;;;;;;;;;;21.32;33.19;101377.81;5022882;28;20032;-74
2023/05/09 12:16:50;;;;;;;;;;;;;;;21.19;33.56;101385.03;5025733;28;20498;-75
2023/05/09 12:19:17;;;;;;;;;;;;;;;21.26;33.17;101368.97;5009489;28;19996;-74
2023/05/09 12:21:42;;;;;;;;;;;;;;;21.07;33.82;101371.31;5022072;28;20313;-77
2023/05/09 12:24:08;;;;;;;;;;;;;;;21.22;33.53;101370.78;5007898;28;19963;-74
2023/05/09 12:26:34;;;;;;;;;;;;;;;21.19;32.37;101365.97;5013135;28;19934;-75
2023/05/09 12:28:59;;;;;;;;;;;;;;;21.30;33.44;101363.72;5029595;28;19954;-77
2023/05/09 12:31:25;;;;;;;;;;;;;;;21.64;33.39;101367.41;5014781;28;19947;-76
2023/05/09 12:33:51;;;;;;;;;;;;;;;21.86;32.81;101363.59;5029130;28;20305;-75
2023/05/09 12:36:16;;;;;;;;;;;;;;;22.01;34.02;101377.44;5014294;28;19949;-75
2023/05/09 12:38:54;;;;;;;;;;;;;;;21.92;32.44;101376.69;5013789;28;19941;-75
2023/05/09 12:41:20;;;;;;;;;;;;;;;22.02;32.82;101367.34;5032932;28;20035;-76